createdAt,value
2022-11-19T00:01:36.025Z,-5.53
2022-11-19T00:04:07.065Z,-5.68
2022-11-19T00:06:33.655Z,-5.64
2022-11-19T00:09:00.229Z,-5.74
2022-11-19T00:11:28.314Z,-5.67
2022-11-19T00:13:54.807Z,-5.54
2022-11-19T00:16:21.577Z,-5.41
2022-11-19T00:18:48.089Z,-5.56
2022-11-19T00:21:14.666Z,-5.47
2022-11-19T00:23:41.255Z,-5.31
2022-11-19T00:26:10.244Z,-5.48
2022-11-19T00:28:37.464Z,-5.62
2022-11-19T00:31:09.691Z,-5.76
2022-11-19T00:33:37.621Z,-5.80
2022-11-19T00:36:06.567Z,-5.75
2022-11-19T00:38:33.706Z,-5.79
2022-11-19T00:41:00.875Z,-5.55
2022-11-19T00:43:28.065Z,-5.67
2022-11-19T00:45:54.654Z,-5.65
2022-11-19T00:48:21.241Z,-5.52
2022-11-19T00:50:47.764Z,-5.74
2022-11-19T00:53:14.436Z,-5.81
2022-11-19T00:55:40.994Z,-5.78
2022-11-19T00:58:07.677Z,-5.74
2022-11-19T01:00:34.321Z,-5.66
2022-11-19T01:03:00.928Z,-5.63
2022-11-19T01:05:27.532Z,-5.74
2022-11-19T01:07:54.225Z,-5.53
2022-11-19T01:10:20.886Z,-5.56
2022-11-19T01:12:48.108Z,-5.53
2022-11-19T01:15:14.787Z,-5.51
2022-11-19T01:17:41.407Z,-5.40
2022-11-19T01:20:08.788Z,-5.45
2022-11-19T01:22:35.506Z,-5.57
2022-11-19T01:25:02.075Z,-5.39
2022-11-19T01:27:28.703Z,-5.34
2022-11-19T01:29:55.336Z,-5.34
2022-11-19T01:32:21.969Z,-5.25
2022-11-19T01:34:48.532Z,-5.29
2022-11-19T01:37:15.370Z,-5.34
2022-11-19T01:39:41.939Z,-5.48
2022-11-19T01:42:19.528Z,-5.51
2022-11-19T01:45:04.289Z,-5.47
2022-11-19T01:47:31.128Z,-5.62
2022-11-19T01:49:57.825Z,-5.71
2022-11-19T01:52:24.483Z,-5.73
2022-11-19T01:54:54.389Z,-5.63
2022-11-19T01:57:21.667Z,-5.69
2022-11-19T01:59:51.632Z,-5.65
2022-11-19T02:02:19.902Z,-5.75
2022-11-19T02:04:48.318Z,-5.67
2022-11-19T02:07:21.030Z,-5.52
2022-11-19T02:09:47.792Z,-5.44
2022-11-19T02:12:41.882Z,-5.65
2022-11-19T02:16:16.023Z,-5.66
2022-11-19T02:18:52.219Z,-5.60
2022-11-19T02:21:24.493Z,-5.71
2022-11-19T02:24:09.270Z,-5.82
2022-11-19T02:26:57.374Z,-5.76
2022-11-19T02:29:29.613Z,-5.78
2022-11-19T02:32:02.409Z,-5.75
2022-11-19T02:34:33.686Z,-5.95
2022-11-19T02:37:03.427Z,-5.70
2022-11-19T02:39:45.187Z,-5.85
2022-11-19T02:42:19.383Z,-5.83
2022-11-19T02:44:51.498Z,-5.88
2022-11-19T02:47:22.153Z,-5.74
2022-11-19T02:49:51.386Z,-5.79
2022-11-19T02:52:19.249Z,-5.75
2022-11-19T02:54:45.926Z,-5.87
2022-11-19T02:57:13.983Z,-6.20
2022-11-19T02:59:46.813Z,-6.09
2022-11-19T03:02:16.975Z,-6.10
2022-11-19T03:04:43.825Z,-6.03
2022-11-19T03:07:14.529Z,-5.92
2022-11-19T03:09:46.559Z,-5.94
2022-11-19T03:12:23.433Z,-5.85
2022-11-19T03:15:05.450Z,-5.83
2022-11-19T03:18:02.784Z,-6.01
2022-11-19T03:20:35.788Z,-5.89
2022-11-19T03:23:05.545Z,-5.82
2022-11-19T03:25:38.529Z,-5.71
2022-11-19T03:28:16.781Z,-5.86
2022-11-19T03:30:46.236Z,-5.92
2022-11-19T03:33:23.466Z,-5.92
2022-11-19T03:35:55.889Z,-6.00
2022-11-19T03:38:31.580Z,-6.03
2022-11-19T03:40:59.377Z,-6.41
2022-11-19T03:43:29.227Z,-5.94
2022-11-19T03:45:58.907Z,-6.25
2022-11-19T03:48:27.834Z,-6.17
2022-11-19T03:51:05.174Z,-6.00
2022-11-19T03:53:31.866Z,-6.10
2022-11-19T03:56:09.583Z,-6.06
2022-11-19T03:58:41.854Z,-6.06
2022-11-19T04:01:09.486Z,-6.10
2022-11-19T04:03:36.173Z,-6.07
2022-11-19T04:06:03.938Z,-5.91
2022-11-19T04:08:30.956Z,-5.97
2022-11-19T04:13:24.590Z,-5.93
2022-11-19T04:15:51.606Z,-6.13
2022-11-19T04:18:18.239Z,-5.98
2022-11-19T04:20:45.596Z,-5.97
2022-11-19T04:23:12.158Z,-6.02
2022-11-19T04:25:39.705Z,-6.04
2022-11-19T04:28:06.276Z,-5.97
2022-11-19T04:30:32.986Z,-5.93
2022-11-19T04:32:59.693Z,-5.98
2022-11-19T04:35:26.364Z,-6.00
2022-11-19T04:37:52.959Z,-6.05
2022-11-19T04:40:19.747Z,-5.91
2022-11-19T04:42:46.321Z,-6.03
2022-11-19T04:45:13.062Z,-6.03
2022-11-19T04:47:40.099Z,-5.99
2022-11-19T04:50:07.509Z,-5.91
2022-11-19T04:52:39.266Z,-5.99
2022-11-19T04:55:07.807Z,-6.18
2022-11-19T04:57:34.388Z,-6.16
2022-11-19T05:00:00.986Z,-6.22
2022-11-19T05:02:27.595Z,-6.17
2022-11-19T05:04:54.246Z,-6.20
2022-11-19T05:07:20.886Z,-5.95
2022-11-19T05:09:47.614Z,-5.83
2022-11-19T05:12:14.209Z,-5.97
2022-11-19T05:14:40.918Z,-6.02
2022-11-19T05:17:07.531Z,-5.97
2022-11-19T05:19:35.423Z,-6.08
2022-11-19T05:22:02.039Z,-6.07
2022-11-19T05:24:28.775Z,-6.17
2022-11-19T05:26:55.347Z,-5.92
2022-11-19T05:29:22.159Z,-5.89
2022-11-19T05:31:49.030Z,-6.15
2022-11-19T05:34:15.669Z,-6.17
2022-11-19T05:36:42.246Z,-6.13
2022-11-19T05:39:09.140Z,-6.18
2022-11-19T05:41:35.761Z,-6.48
2022-11-19T05:44:02.920Z,-6.17
2022-11-19T05:46:29.595Z,-6.12
2022-11-19T05:48:56.291Z,-6.03
2022-11-19T05:51:22.887Z,-6.09
2022-11-19T05:53:49.669Z,-6.09
2022-11-19T05:56:16.316Z,-6.05
2022-11-19T05:58:43.023Z,-6.12
2022-11-19T06:01:09.639Z,-6.21
2022-11-19T06:03:36.314Z,-6.20
2022-11-19T06:06:02.977Z,-6.20
2022-11-19T06:08:29.751Z,-6.20
2022-11-19T06:10:56.320Z,-6.29
2022-11-19T06:13:23.054Z,-6.33
2022-11-19T06:15:49.692Z,-6.16
2022-11-19T06:18:16.298Z,-6.34
2022-11-19T06:20:42.875Z,-6.22
2022-11-19T06:23:09.597Z,-6.19
2022-11-19T06:25:36.399Z,-6.04
2022-11-19T06:28:03.253Z,-6.06
2022-11-19T06:30:29.867Z,-6.08
2022-11-19T06:32:56.483Z,-6.08
2022-11-19T06:35:23.121Z,-6.22
2022-11-19T06:37:50.309Z,-6.22
2022-11-19T06:40:16.994Z,-6.33
2022-11-19T06:42:48.442Z,-6.27
2022-11-19T06:45:17.665Z,-6.47
2022-11-19T06:47:47.712Z,-6.35
2022-11-19T06:50:14.421Z,-6.34
2022-11-19T06:52:41.139Z,-6.37
2022-11-19T06:55:08.204Z,-6.33
2022-11-19T06:57:34.780Z,-6.26
2022-11-19T07:00:01.738Z,-6.38
2022-11-19T07:02:28.502Z,-6.62
2022-11-19T07:04:55.126Z,-6.49
2022-11-19T07:07:21.833Z,-6.52
2022-11-19T07:09:48.570Z,-6.42
2022-11-19T07:12:15.200Z,-6.16
2022-11-19T07:14:41.951Z,-6.50
2022-11-19T07:17:08.558Z,-6.16
2022-11-19T07:19:35.218Z,-6.10
2022-11-19T07:22:01.972Z,-6.21
2022-11-19T07:24:28.675Z,-6.16
2022-11-19T07:26:55.828Z,-6.06
2022-11-19T07:29:22.812Z,-6.13
2022-11-19T07:31:49.572Z,-6.17
2022-11-19T07:34:17.460Z,-6.06
2022-11-19T07:36:44.415Z,-6.11
2022-11-19T07:39:11.296Z,-6.22
2022-11-19T07:41:38.187Z,-6.27
2022-11-19T07:44:05.116Z,-6.51
2022-11-19T07:46:31.721Z,-6.18
2022-11-19T07:48:59.167Z,-6.31
2022-11-19T07:51:27.127Z,-6.07
2022-11-19T07:53:55.449Z,-6.12
2022-11-19T07:56:22.552Z,-5.98
2022-11-19T07:58:49.398Z,-6.04
2022-11-19T08:01:19.002Z,-6.03
2022-11-19T08:03:51.853Z,-6.20
2022-11-19T08:06:26.563Z,-6.18
2022-11-19T08:08:55.116Z,-6.23
2022-11-19T08:11:22.703Z,-6.00
2022-11-19T08:13:49.346Z,-5.94
2022-11-19T08:16:17.383Z,-5.95
2022-11-19T08:18:44.672Z,-5.88
2022-11-19T08:21:12.005Z,-5.75
2022-11-19T08:23:39.432Z,-5.91
2022-11-19T08:26:07.297Z,-6.00
2022-11-19T08:28:34.473Z,-5.91
2022-11-19T08:31:08.318Z,-6.17
2022-11-19T08:33:35.826Z,-5.99
2022-11-19T08:36:02.677Z,-5.92
2022-11-19T08:38:30.735Z,-5.99
2022-11-19T08:40:58.978Z,-5.88
2022-11-19T08:43:27.321Z,-5.86
2022-11-19T08:45:53.891Z,-6.07
2022-11-19T08:48:20.637Z,-6.00
2022-11-19T08:50:47.275Z,-5.99
2022-11-19T08:53:14.003Z,-5.88
2022-11-19T08:55:40.803Z,-5.83
2022-11-19T08:58:08.194Z,-5.96
2022-11-19T09:00:36.870Z,-6.21
2022-11-19T09:03:04.129Z,-6.26
2022-11-19T09:05:30.785Z,-6.14
2022-11-19T09:07:57.662Z,-6.12
2022-11-19T09:10:24.467Z,-6.34
2022-11-19T09:12:51.198Z,-6.44
2022-11-19T09:15:17.845Z,-6.36
2022-11-19T09:17:47.070Z,-6.32
2022-11-19T09:20:14.281Z,-6.43
2022-11-19T09:22:41.070Z,-6.39
2022-11-19T09:25:08.218Z,-6.19
2022-11-19T09:27:36.459Z,-6.16
2022-11-19T09:30:04.771Z,-6.14
2022-11-19T09:32:31.533Z,-6.02
2022-11-19T09:34:58.139Z,-6.01
2022-11-19T09:37:24.770Z,-5.63
2022-11-19T09:39:51.603Z,-5.78
2022-11-19T09:42:42.847Z,-5.60
2022-11-19T09:45:33.307Z,-5.56
2022-11-19T09:48:17.976Z,-5.43
2022-11-19T09:50:55.751Z,-5.33
2022-11-19T09:53:23.299Z,-5.48
2022-11-19T09:55:53.463Z,-5.29
2022-11-19T09:58:30.694Z,-5.43
2022-11-19T10:00:57.342Z,-5.28
2022-11-19T10:03:31.576Z,-5.40
2022-11-19T10:06:15.317Z,-5.18
2022-11-19T10:08:41.952Z,-5.04
2022-11-19T10:11:33.572Z,-4.95
2022-11-19T10:14:44.936Z,-5.21
2022-11-19T10:17:33.454Z,-5.12
2022-11-19T10:20:18.721Z,-4.84
2022-11-19T10:22:57.733Z,-4.79
2022-11-19T10:25:33.661Z,-4.64
2022-11-19T10:28:21.036Z,-4.75
2022-11-19T10:31:27.301Z,-4.79
2022-11-19T10:34:19.537Z,-4.74
2022-11-19T10:36:52.553Z,-4.67
2022-11-19T10:39:19.500Z,-4.61
2022-11-19T10:42:09.014Z,-4.50
2022-11-19T10:44:41.387Z,-4.54
2022-11-19T10:47:22.043Z,-4.46
2022-11-19T10:49:54.024Z,-4.38
2022-11-19T10:52:31.148Z,-4.41
2022-11-19T10:55:21.126Z,-4.50
2022-11-19T10:57:50.740Z,-4.32
2022-11-19T11:00:17.935Z,-4.26
2022-11-19T11:02:57.561Z,-4.31
2022-11-19T11:05:24.242Z,-4.39
2022-11-19T11:07:57.904Z,-4.40
2022-11-19T11:10:40.372Z,-4.54
2022-11-19T11:13:16.252Z,-4.64
2022-11-19T11:15:47.845Z,-4.67
2022-11-19T11:18:15.362Z,-4.70
2022-11-19T11:20:48.054Z,-4.65
2022-11-19T11:23:52.038Z,-4.30
2022-11-19T11:26:22.882Z,-4.57
2022-11-19T11:29:01.991Z,-4.36
2022-11-19T11:31:31.767Z,-4.37
2022-11-19T11:33:58.419Z,-4.63
2022-11-19T11:36:27.400Z,-4.33
2022-11-19T11:38:56.587Z,-4.12
2022-11-19T11:44:25.872Z,-4.01
2022-11-19T11:46:53.879Z,-4.14
2022-11-19T11:50:14.165Z,-4.06
2022-11-19T11:52:42.373Z,-4.19
2022-11-19T11:55:23.748Z,-4.12
2022-11-19T11:57:59.066Z,-4.25
2022-11-19T12:00:40.217Z,-4.16
2022-11-19T12:03:15.506Z,-4.18
2022-11-19T12:05:50.589Z,-4.41
2022-11-19T12:08:29.108Z,-4.41
2022-11-19T12:11:07.420Z,-4.33
2022-11-19T12:13:52.345Z,-4.16
2022-11-19T12:16:39.884Z,-4.20
2022-11-19T12:19:19.765Z,-4.11
2022-11-19T12:22:35.681Z,-4.09
2022-11-19T12:25:08.341Z,-3.95
2022-11-19T12:28:14.569Z,-4.02
2022-11-19T12:30:51.251Z,-4.06
2022-11-19T12:33:36.026Z,-4.05
2022-11-19T12:36:19.087Z,-3.99
2022-11-19T12:38:45.685Z,-4.02
2022-11-19T12:41:52.147Z,-4.17
2022-11-19T12:44:37.422Z,-4.01
2022-11-19T12:47:25.179Z,-3.86
2022-11-19T12:50:03.344Z,-3.86
2022-11-19T12:52:51.938Z,-4.10
2022-11-19T12:55:36.159Z,-4.13
2022-11-19T12:58:12.261Z,-4.11
2022-11-19T13:00:46.721Z,-4.09
2022-11-19T13:03:20.794Z,-4.12
2022-11-19T13:06:02.666Z,-4.18
2022-11-19T13:08:41.710Z,-4.10
2022-11-19T13:11:17.295Z,-3.89
2022-11-19T13:13:49.202Z,-3.98
2022-11-19T13:16:20.050Z,-3.94
2022-11-19T13:18:50.474Z,-3.78
2022-11-19T13:21:43.341Z,-3.68
2022-11-19T13:24:28.244Z,-3.72
2022-11-19T13:27:00.639Z,-3.72
2022-11-19T13:29:33.037Z,-3.90
2022-11-19T13:32:11.065Z,-4.26
2022-11-19T13:35:00.914Z,-3.97
2022-11-19T13:37:45.733Z,-4.15
2022-11-19T13:40:26.426Z,-3.77
2022-11-19T13:43:10.443Z,-3.91
2022-11-19T13:45:46.798Z,-3.97
2022-11-19T13:48:21.926Z,-4.14
2022-11-19T13:50:52.363Z,-4.02
2022-11-19T13:53:23.945Z,-4.19
2022-11-19T13:55:55.970Z,-4.34
2022-11-19T13:58:34.652Z,-4.11
2022-11-19T14:01:08.460Z,-3.92
2022-11-19T14:03:56.963Z,-3.95
2022-11-19T14:06:52.994Z,-3.73
2022-11-19T14:09:34.043Z,-3.78
2022-11-19T14:12:23.847Z,-3.77
2022-11-19T14:15:00.252Z,-3.96
2022-11-19T14:18:06.235Z,-4.22
2022-11-19T14:20:37.868Z,-3.74
2022-11-19T14:23:04.529Z,-3.60
2022-11-19T14:25:44.405Z,-3.73
2022-11-19T14:28:47.965Z,-3.49
2022-11-19T14:31:16.473Z,-3.30
2022-11-19T14:33:48.778Z,-3.45
2022-11-19T14:36:22.042Z,-3.77
2022-11-19T14:38:56.846Z,-3.73
2022-11-19T14:41:28.359Z,-3.66
2022-11-19T14:44:34.066Z,-3.77
2022-11-19T14:47:22.173Z,-4.06
2022-11-19T14:49:54.012Z,-4.37
2022-11-19T14:52:24.474Z,-4.24
2022-11-19T14:54:56.995Z,-4.28
2022-11-19T14:57:26.140Z,-4.19
2022-11-19T14:59:58.919Z,-4.01
2022-11-19T15:02:35.247Z,-4.09
2022-11-19T15:05:14.827Z,-4.04
2022-11-19T15:07:45.468Z,-4.14
2022-11-19T15:13:25.583Z,-4.07
2022-11-19T15:16:07.159Z,-4.12
2022-11-19T15:18:36.848Z,-4.28
2022-11-19T15:21:29.952Z,-4.30
2022-11-19T15:24:21.500Z,-4.27
2022-11-19T15:27:19.007Z,-4.29
2022-11-19T15:30:20.952Z,-4.21
2022-11-19T15:33:06.332Z,-4.29
2022-11-19T15:36:17.568Z,-4.23
2022-11-19T15:38:59.834Z,-4.28
2022-11-19T15:41:31.536Z,-4.14
2022-11-19T15:44:01.566Z,-4.00
2022-11-19T15:46:34.094Z,-3.84
2022-11-19T15:49:11.563Z,-3.92
2022-11-19T15:51:56.539Z,-3.87
2022-11-19T15:54:28.291Z,-3.92
2022-11-19T15:57:16.959Z,-3.90
2022-11-19T15:59:47.697Z,-3.78
2022-11-19T16:02:32.423Z,-3.70
2022-11-19T16:04:59.246Z,-3.77
2022-11-19T16:07:28.914Z,-3.88
2022-11-19T16:09:57.378Z,-3.97
2022-11-19T16:12:26.222Z,-3.94
2022-11-19T16:14:53.712Z,-3.91
2022-11-19T16:17:23.906Z,-3.90
2022-11-19T16:20:10.090Z,-3.90
2022-11-19T16:22:57.111Z,-3.84
2022-11-19T16:25:39.991Z,-3.86
2022-11-19T16:28:11.459Z,-4.09
2022-11-19T16:30:48.144Z,-3.90
2022-11-19T16:33:18.985Z,-3.90
2022-11-19T16:35:51.227Z,-3.82
2022-11-19T16:38:26.503Z,-3.79
2022-11-19T16:40:54.899Z,-3.90
2022-11-19T16:43:21.550Z,-3.92
2022-11-19T16:45:49.209Z,-4.01
2022-11-19T16:48:52.857Z,-4.10
2022-11-19T16:51:31.561Z,-4.06
2022-11-19T16:53:58.875Z,-4.05
2022-11-19T16:56:26.367Z,-4.15
2022-11-19T16:58:59.152Z,-4.63
2022-11-19T17:01:29.431Z,-4.64
2022-11-19T17:04:03.899Z,-4.51
2022-11-19T17:06:33.363Z,-4.60
2022-11-19T17:09:01.018Z,-4.60
2022-11-19T17:11:46.001Z,-4.56
2022-11-19T17:14:24.931Z,-4.53
2022-11-19T17:16:53.333Z,-4.79
2022-11-19T17:19:25.270Z,-4.58
2022-11-19T17:21:58.675Z,-4.56
2022-11-19T17:24:28.130Z,-4.65
2022-11-19T17:26:55.360Z,-4.58
2022-11-19T17:29:23.899Z,-4.66
2022-11-19T17:31:53.754Z,-4.57
2022-11-19T17:34:23.359Z,-4.59
2022-11-19T17:36:50.055Z,-4.59
2022-11-19T17:39:22.520Z,-4.56
2022-11-19T17:41:56.174Z,-4.58
2022-11-19T17:44:27.631Z,-4.54
2022-11-19T17:46:54.278Z,-4.57
2022-11-19T17:49:20.886Z,-4.59
2022-11-19T17:51:47.589Z,-4.58
2022-11-19T17:54:14.172Z,-4.62
2022-11-19T17:56:41.058Z,-4.60
2022-11-19T17:59:07.764Z,-4.66
2022-11-19T18:01:34.862Z,-4.71
2022-11-19T18:04:01.537Z,-4.81
2022-11-19T18:06:28.284Z,-4.79
2022-11-19T18:08:54.854Z,-4.86
2022-11-19T18:11:24.108Z,-4.97
2022-11-19T18:13:53.207Z,-5.08
2022-11-19T18:16:23.215Z,-5.14
2022-11-19T18:18:50.427Z,-5.00
2022-11-19T18:21:19.567Z,-5.27
2022-11-19T18:23:47.887Z,-5.05
2022-11-19T18:26:18.994Z,-5.13
2022-11-19T18:28:48.846Z,-5.42
2022-11-19T18:31:19.755Z,-5.30
2022-11-19T18:33:47.656Z,-5.25
2022-11-19T18:36:15.178Z,-5.20
2022-11-19T18:38:42.766Z,-5.44
2022-11-19T18:41:11.124Z,-5.18
2022-11-19T18:43:40.061Z,-5.21
2022-11-19T18:46:06.850Z,-5.26
2022-11-19T18:48:33.459Z,-5.17
2022-11-19T18:51:00.223Z,-5.16
2022-11-19T18:53:27.387Z,-5.14
2022-11-19T18:55:54.586Z,-5.24
2022-11-19T18:58:21.316Z,-5.26
2022-11-19T19:00:50.847Z,-5.25
2022-11-19T19:03:17.522Z,-5.28
2022-11-19T19:05:44.086Z,-5.31
2022-11-19T19:08:10.760Z,-5.36
2022-11-19T19:10:37.335Z,-5.43
2022-11-19T19:13:04.362Z,-5.41
2022-11-19T19:15:31.028Z,-5.38
2022-11-19T19:17:57.686Z,-5.48
2022-11-19T19:20:24.251Z,-5.47
2022-11-19T19:22:51.058Z,-5.48
2022-11-19T19:25:17.739Z,-5.51
2022-11-19T19:27:44.431Z,-5.63
2022-11-19T19:30:11.670Z,-5.85
2022-11-19T19:32:38.339Z,-5.93
2022-11-19T19:35:05.530Z,-5.85
2022-11-19T19:37:32.542Z,-5.73
2022-11-19T19:40:01.439Z,-5.63
2022-11-19T19:42:29.195Z,-5.65
2022-11-19T19:44:56.344Z,-5.65
2022-11-19T19:47:24.374Z,-5.68
2022-11-19T19:49:51.255Z,-5.71
2022-11-19T19:52:18.230Z,-5.88
2022-11-19T19:54:44.899Z,-5.94
2022-11-19T19:57:11.618Z,-6.28
2022-11-19T19:59:38.237Z,-6.42
2022-11-19T20:02:04.984Z,-6.45
2022-11-19T20:04:32.060Z,-6.42
2022-11-19T20:06:59.007Z,-6.47
2022-11-19T20:09:25.911Z,-6.46
2022-11-19T20:11:52.751Z,-6.75
2022-11-19T20:14:19.458Z,-6.61
2022-11-19T20:16:46.295Z,-6.62
2022-11-19T20:19:14.252Z,-7.00
2022-11-19T20:21:41.415Z,-6.73
2022-11-19T20:24:12.142Z,-6.96
2022-11-19T20:26:40.820Z,-6.73
2022-11-19T20:29:07.861Z,-6.81
2022-11-19T20:31:34.829Z,-6.80
2022-11-19T20:34:03.815Z,-6.88
2022-11-19T20:36:32.865Z,-6.72
2022-11-19T20:39:00.245Z,-6.68
2022-11-19T20:41:27.972Z,-6.77
2022-11-19T20:43:55.633Z,-6.87
2022-11-19T20:46:22.549Z,-7.20
2022-11-19T20:48:49.159Z,-7.25
2022-11-19T20:51:16.092Z,-7.13
2022-11-19T20:53:45.522Z,-7.16
2022-11-19T20:56:12.802Z,-7.14
2022-11-19T20:58:39.504Z,-7.02
2022-11-19T21:01:08.775Z,-7.02
2022-11-19T21:03:35.346Z,-6.93
2022-11-19T21:06:04.180Z,-6.94
2022-11-19T21:08:32.228Z,-6.91
2022-11-19T21:11:07.926Z,-6.86
2022-11-19T21:13:35.072Z,-6.80
2022-11-19T21:16:06.741Z,-6.81
2022-11-19T21:18:36.817Z,-6.91
2022-11-19T21:21:07.247Z,-6.83
2022-11-19T21:23:34.223Z,-6.85
2022-11-19T21:26:08.994Z,-6.96
2022-11-19T21:28:36.701Z,-6.89
2022-11-19T21:31:04.158Z,-6.79
2022-11-19T21:33:30.796Z,-6.80
2022-11-19T21:35:58.792Z,-6.81
2022-11-19T21:38:25.913Z,-6.83
2022-11-19T21:40:54.421Z,-6.82
2022-11-19T21:43:23.030Z,-6.84
2022-11-19T21:45:50.458Z,-6.84
2022-11-19T21:48:17.195Z,-6.78
2022-11-19T21:50:43.962Z,-6.76
2022-11-19T21:53:11.938Z,-6.78
2022-11-19T21:55:38.890Z,-6.74
2022-11-19T21:58:06.519Z,-6.84
2022-11-19T22:00:34.020Z,-6.86
2022-11-19T22:03:00.821Z,-7.15
2022-11-19T22:05:28.114Z,-7.16
2022-11-19T22:07:57.625Z,-7.33
2022-11-19T22:10:24.222Z,-7.23
2022-11-19T22:12:51.150Z,-7.36
2022-11-19T22:15:18.048Z,-7.87
2022-11-19T22:17:44.758Z,-7.91
2022-11-19T22:20:12.533Z,-8.09
2022-11-19T22:22:39.334Z,-8.17
2022-11-19T22:25:06.179Z,-8.03
2022-11-19T22:27:33.034Z,-7.90
2022-11-19T22:30:03.110Z,-7.97
2022-11-19T22:32:32.504Z,-8.14
2022-11-19T22:35:00.282Z,-8.03
2022-11-19T22:37:26.911Z,-7.91
2022-11-19T22:39:53.522Z,-7.78
2022-11-19T22:42:20.331Z,-7.67
2022-11-19T22:44:47.153Z,-7.70
2022-11-19T22:47:13.819Z,-7.81
2022-11-19T22:49:40.693Z,-7.80
2022-11-19T22:52:07.417Z,-7.75
2022-11-19T22:54:40.176Z,-7.78
2022-11-19T22:57:08.217Z,-7.76
2022-11-19T22:59:35.078Z,-7.68
2022-11-19T23:02:01.878Z,-7.60
2022-11-19T23:04:28.600Z,-7.58
2022-11-19T23:06:55.555Z,-7.76
2022-11-19T23:09:22.564Z,-7.82
2022-11-19T23:11:49.603Z,-7.73
2022-11-19T23:14:17.676Z,-7.73
2022-11-19T23:16:44.930Z,-7.74
2022-11-19T23:19:14.151Z,-7.92
2022-11-19T23:21:41.129Z,-7.90
2022-11-19T23:24:09.130Z,-7.79
2022-11-19T23:26:36.374Z,-7.66
2022-11-19T23:29:03.964Z,-7.83
2022-11-19T23:31:36.683Z,-7.80
2022-11-19T23:34:04.994Z,-7.69
2022-11-19T23:36:33.963Z,-7.59
2022-11-19T23:39:01.221Z,-7.81
2022-11-19T23:41:28.271Z,-7.54
2022-11-19T23:43:56.091Z,-7.61
2022-11-19T23:46:25.389Z,-7.67
2022-11-19T23:48:52.895Z,-7.86
2022-11-19T23:51:22.767Z,-7.87
2022-11-19T23:53:49.733Z,-7.83
2022-11-19T23:56:18.071Z,-7.79
2022-11-19T23:58:45.032Z,-7.74
